Flight Track Log - Related Links

Times and Time Zones

All times are in EDT time to prevent confusion due to time zone crossing. See the FLG3437 flight status page for this flight to view local times or setup timezone preferences in your user account.

Time Position Orientation Groundspeed Altitude Reporting Facility
EDT Latitude Longitude Course Direction KTS MPH feet Rate Location/Type
Thu 07:03:42 AM 38.8667 -77.0500 270° West 158 182 800  Level Potomac TRACON
Thu 07:04:42 AM 38.9000 -77.0833 322° Northwest 193 222 3,000 2,211 Climbing Potomac TRACON
Thu 07:05:36 AM 38.9500 -77.1333 322° Northwest 229 264 5,000 2,556 Climbing Potomac TRACON
Thu 07:06:00 AM 38.8500 -77.4585 270° West  Level FlightAware Approximate
Thu 07:06:30 AM 38.9667 -77.2000 288° West 260 299 7,600  Level Potomac TRACON
Thu 07:07:00 AM 38.8500 -77.6003 270° West  Level FlightAware Approximate
Thu 07:08:00 AM 38.8500 -77.7420 270° West  Level FlightAware Approximate
Thu 07:08:54 AM 38.8892 -77.4053 244° Southwest 284 327 12,600  Level Washington Center
Thu 07:09:00 AM 38.8501 -77.8838 270° West  Level FlightAware Approximate
Thu 07:09:53 AM 38.8853 -77.5358 268° West 315 362 15,100  Level Washington Center
Thu 07:10:54 AM 38.8811 -77.6475 267° West 337 388 16,900 934 Climbing Washington Center
Thu 07:11:55 AM 38.8747 -77.7861 267° West 360 414 17,000 807 Climbing Washington Center
Thu 07:12:53 AM 38.8681 -77.9192 266° West 365 420 18,500 1,729 Climbing Washington Center
Thu 07:13:53 AM 38.8614 -78.0444 266° West 365 420 20,400 1,900 Climbing Washington Center
Thu 07:14:53 AM 38.8564 -78.1775 267° West 365 420 22,300 1,300 Climbing Washington Center
Thu 07:15:53 AM 38.8533 -78.3133 268° West 370 426 23,000 1,050 Climbing Washington Center
Thu 07:16:53 AM 38.8522 -78.4519 269° West 380 437 24,400 1,488 Climbing Washington Center
Thu 07:17:54 AM 38.8511 -78.5906 269° West 386 444 26,000 1,500 Climbing Washington Center
Thu 07:18:53 AM 38.8494 -78.7317 269° West 386 444 27,400 1,200 Climbing Washington Center
Thu 07:19:54 AM 38.8478 -78.8756 269° West 399 459 28,400 1,279 Climbing Washington Center
Thu 07:20:55 AM 38.8458 -79.0219 269° West 405 466 30,000 1,587 Climbing Washington Center
Thu 07:21:55 AM 38.8436 -79.1658 269° West 410 472 31,600 1,008 Climbing Washington Center
Thu 07:22:54 AM 38.8414 -79.3125 269° West 410 472 32,000 205 Climbing Washington Center
Thu 07:23:52 AM 38.8386 -79.4589 269° West 410 472 32,000  Level Washington Center
Thu 07:24:54 AM 38.8364 -79.5947 269° West 423 487 32,000  Level Washington Center
Thu 07:25:55 AM 38.8328 -79.7569 268° West 423 487 32,000  Level Washington Center
Thu 07:28:19 AM 38.8208 -80.0872 267° West 418 481 32,000  Level Indianapolis Center
Thu 07:29:21 AM 38.8167 -80.2394 268° West 426 490 32,000  Level Indianapolis Center
Thu 07:30:22 AM 38.8119 -80.4247 268° West 432 497 32,000  Level Indianapolis Center
Thu 07:31:23 AM 38.8042 -80.5764 266° West 428 493 32,000  Level Indianapolis Center
Thu 07:32:25 AM 38.7822 -80.7275 259° West 430 495 32,000  Level Indianapolis Center
Thu 07:33:26 AM 38.7617 -80.8772 260° West 428 493 32,000  Level Indianapolis Center
Thu 07:34:28 AM 38.7400 -81.0267 260° West 426 490 32,000  Level Indianapolis Center
Thu 07:35:29 AM 38.7186 -81.1761 260° West 427 491 32,000  Level Indianapolis Center
Thu 07:36:31 AM 38.6975 -81.3233 260° West 421 484 32,000  Level Indianapolis Center
Thu 07:37:32 AM 38.6769 -81.4714 260° West 419 482 32,000  Level Indianapolis Center
Thu 07:38:34 AM 38.6519 -81.6428 259° West 419 482 32,000 -537 Level Indianapolis Center
Thu 07:39:35 AM 38.6317 -81.7789 259° West 424 488 30,900 -1,268 Descending Indianapolis Center
Thu 07:40:37 AM 38.6097 -81.9236 259° West 415 478 29,400 -1,463 Descending Indianapolis Center
Thu 07:41:38 AM 38.5881 -82.0678 259° West 415 478 27,900 -1,463 Descending Indianapolis Center
Thu 07:42:40 AM 38.5661 -82.2128 259° West 415 478 26,400 -1,463 Descending Indianapolis Center
Thu 07:43:41 AM 38.5436 -82.3553 259° West 410 472 24,900 -1,512 Descending Indianapolis Center
Thu 07:44:43 AM 38.5203 -82.5072 259° West 404 465 23,300 -1,610 Descending Indianapolis Center
Thu 07:45:44 AM 38.5186 -82.6689 269° West 395 455 21,600 -1,463 Descending Indianapolis Center
Thu 07:46:46 AM 38.5300 -82.8025 276° West 384 442 20,300 -1,258 Descending Indianapolis Center
Thu 07:47:48 AM 38.5406 -82.9325 276° West 373 429 19,000 -1,268 Descending Indianapolis Center
Thu 07:48:49 AM 38.5508 -83.0589 276° West 362 417 17,700 -1,220 Descending Indianapolis Center
Thu 07:49:51 AM 38.5603 -83.1850 276° West 356 410 16,500 -1,220 Descending Indianapolis Center
Thu 07:50:52 AM 38.5697 -83.3086 276° West 352 405 15,200 -1,268 Descending Indianapolis Center
Thu 07:51:54 AM 38.5792 -83.4314 276° West 348 400 13,900 -1,355 Descending Indianapolis Center
Thu 07:52:56 AM 38.5903 -83.5728 276° West 343 395 12,400 -1,366 Descending Indianapolis Center
Thu 07:53:57 AM 38.5986 -83.6925 275° West 341 392 11,100 -1,171 Descending Indianapolis Center
Thu 07:54:59 AM 38.6081 -83.8103 276° West 335 386 10,000 -532 Descending Indianapolis Center
Thu 07:56:01 AM 38.6192 -83.9306 277° West 339 390 10,000  Level Indianapolis Center
Thu 07:57:02 AM 38.6672 -84.0250 303° West 340 391 10,000  Level Indianapolis Center
Thu 07:58:04 AM 38.7281 -84.1411 304° West 336 387 10,000  Level Indianapolis Center
Thu 07:59:06 AM 38.7800 -84.2422 303° West 335 386 10,000  Level Indianapolis Center
Thu 08:00:08 AM 38.8311 -84.3419 303° West 334 384 10,000  Level Indianapolis Center
Thu 08:01:09 AM 38.8831 -84.4417 304° West 333 383 10,000 -72 Level Indianapolis Center
Thu 08:01:31 AM 38.9000 -84.4667 311° West 293 337 9,900 -732 Descending Cincinnati TRACON
Thu 08:02:31 AM 38.9500 -84.5333 314° West 274 315 9,000 -1,053 Descending Cincinnati TRACON
Thu 08:03:25 AM 39.0167 -84.5333 360° North 265 305 7,900 -1,632 Descending Cincinnati TRACON
Thu 08:04:25 AM 39.1000 -84.5333 360° North 253 291 5,900 -2,000 Descending Cincinnati TRACON

Login

Don't have an account? Register now (free) for customized features, flight alerts, and more!